Terminal Aerodrome Forecast
Issued by NWS

Home | Current Version | Previous Version | Graphics & Text | Print | Product List | Glossary On
Versions: 1 2 3 4 5 6 7 8 9 10 11 12 13 14 15 16 17 18 19
000
FTUS43 KICT 020904 AAA
TAFHUT
TAF AMD
KHUT 020904Z 0209/0306 06006KT P6SM FEW009 SCT015
     FM021500 05009KT P6SM VCSH SCT025 BKN060
     FM030100 VRB03KT P6SM BKN100=

USA.gov is the U.S. government's official web portal to all federal, state and local government web resources and services.